Time;durP1;ratioP1;P1;durP2;ratioP2;P2;SDS_P1;SDS_P2;PMS_P1;PMS_P2;Temp;Humidity;BMP_temperature;BMP_pressure;BME280_temperature;BME280_humidity;BME280_pressure;Samples;Min_cycle;Max_cycle;Signal;HPM_P1;HPM_P2
2022/12/31 00:00:27;;;;;;;0.85;0.52;;;;;;;9.53;100.00;95791.09;1021857;29;20279;-67
2022/12/31 00:00:58;;;;;;;0.55;0.40;;;;;;;9.48;100.00;95780.56;1022184;29;20054;-69
2022/12/31 00:01:29;;;;;;;0.65;0.50;;;;;;;9.48;100.00;95788.44;1010420;29;20622;-68
2022/12/31 00:01:59;;;;;;;1.73;0.60;;;;;;;9.49;100.00;95784.78;1010736;29;20104;-67
2022/12/31 00:02:30;;;;;;;0.95;0.60;;;;;;;9.45;100.00;95778.44;1014068;29;20020;-67
2022/12/31 00:03:01;;;;;;;1.10;0.52;;;;;;;9.52;100.00;95771.16;1018303;29;20028;-70
2022/12/31 00:03:32;;;;;;;0.47;0.47;;;;;;;9.48;100.00;95777.94;1014630;29;20696;-68
2022/12/31 00:04:03;;;;;;;1.38;0.40;;;;;;;9.40;100.00;95773.19;1014522;29;20275;-67
2022/12/31 00:04:34;;;;;;;0.73;0.60;;;;;;;9.42;100.00;95771.09;1018350;29;20318;-68
2022/12/31 00:05:06;;;;;;;0.50;0.50;;;;;;;9.41;100.00;95782.63;1014318;29;20051;-68
2022/12/31 00:05:36;;;;;;;0.55;0.43;;;;;;;9.41;100.00;95775.56;1017177;29;20076;-67
2022/12/31 00:06:19;;;;;;;1.08;0.40;;;;;;;9.38;100.00;95770.81;1022007;29;20286;-68
2022/12/31 00:06:49;;;;;;;0.55;0.50;;;;;;;9.50;100.00;95775.88;1016281;29;20517;-68
2022/12/31 00:07:20;;;;;;;0.55;0.50;;;;;;;9.52;100.00;95781.63;1018377;29;20271;-69
2022/12/31 00:07:50;;;;;;;1.45;0.60;;;;;;;9.55;100.00;95780.34;1018239;29;20031;-68
2022/12/31 00:08:21;;;;;;;1.85;0.47;;;;;;;9.51;100.00;95779.28;1018011;29;20028;-69
2022/12/31 00:08:52;;;;;;;0.73;0.50;;;;;;;9.48;100.00;95769.31;1010783;29;20024;-68
2022/12/31 00:09:23;;;;;;;0.70;0.50;;;;;;;9.53;100.00;95772.75;1011639;29;20136;-68
2022/12/31 00:09:53;;;;;;;0.60;0.43;;;;;;;9.50;100.00;95778.50;1015062;29;20304;-68
2022/12/31 00:10:24;;;;;;;2.25;0.50;;;;;;;9.55;100.00;95775.09;1018454;28;20039;-69
2022/12/31 00:10:54;;;;;;;2.10;0.60;;;;;;;9.52;100.00;95781.63;1016456;29;20120;-68
2022/12/31 00:11:26;;;;;;;0.73;0.55;;;;;;;9.47;100.00;95768.53;1014205;29;20583;-67
2022/12/31 00:11:56;;;;;;;0.40;0.22;;;;;;;9.35;100.00;95750.38;1010559;29;20037;-67
2022/12/31 00:12:26;;;;;;;1.98;0.60;;;;;;;9.54;100.00;95773.53;1014187;29;20284;-68
2022/12/31 00:12:57;;;;;;;0.40;0.40;;;;;;;9.58;100.00;95775.38;1018302;29;20031;-70
2022/12/31 00:13:27;;;;;;;0.70;0.50;;;;;;;9.55;100.00;95780.34;1026162;28;20163;-68
2022/12/31 00:13:58;;;;;;;0.30;0.30;;;;;;;9.64;100.00;95784.84;1018433;29;20035;-69
2022/12/31 00:14:29;;;;;;;1.38;0.60;;;;;;;9.53;100.00;95756.25;1018320;29;20027;-67
2022/12/31 00:14:59;;;;;;;0.98;0.40;;;;;;;9.67;100.00;95776.47;1022168;29;20039;-68
2022/12/31 00:15:30;;;;;;;0.63;0.50;;;;;;;9.63;100.00;95777.25;1021982;28;20392;-67
2022/12/31 00:16:08;;;;;;;0.30;0.30;;;;;;;9.62;100.00;95771.22;1028973;28;20077;-68
2022/12/31 00:16:40;;;;;;;0.75;0.50;;;;;;;9.71;100.00;95775.97;1018355;29;20047;-68
2022/12/31 00:17:10;;;;;;;0.60;0.20;;;;;;;9.68;100.00;95774.63;1018245;29;20315;-68
2022/12/31 00:17:41;;;;;;;1.00;0.60;;;;;;;9.67;100.00;95758.13;1025235;28;20254;-70
2022/12/31 00:18:11;;;;;;;0.35;0.30;;;;;;;9.82;100.00;95783.59;1011658;29;20033;-68
2022/12/31 00:18:46;;;;;;;0.55;0.40;;;;;;;9.86;100.00;95768.19;1018131;29;20031;-69
2022/12/31 00:19:16;;;;;;;0.52;0.40;;;;;;;9.83;100.00;95776.56;1022141;29;20042;-68
2022/12/31 00:19:46;;;;;;;0.32;0.30;;;;;;;9.77;100.00;95767.09;1018333;29;20382;-68
2022/12/31 00:20:17;;;;;;;0.40;0.40;;;;;;;9.72;100.00;95777.53;1014120;29;20510;-68
2022/12/31 00:20:47;;;;;;;1.33;0.60;;;;;;;9.68;100.00;95770.19;1014657;29;20063;-68
2022/12/31 00:21:18;;;;;;;0.80;0.40;;;;;;;9.77;100.00;95788.06;1017450;29;20084;-68
2022/12/31 00:21:49;;;;;;;0.75;0.45;;;;;;;9.76;100.00;95781.22;1018545;29;20024;-68
2022/12/31 00:22:19;;;;;;;0.45;0.40;;;;;;;9.70;100.00;95769.16;1022290;29;20058;-68
2022/12/31 00:22:49;;;;;;;0.30;0.30;;;;;;;9.71;100.00;95789.06;1021100;29;20054;-68
2022/12/31 00:23:20;;;;;;;0.75;0.50;;;;;;;9.79;100.00;95775.47;1025380;28;20034;-68
2022/12/31 00:23:50;;;;;;;0.50;0.32;;;;;;;9.80;100.00;95769.97;1022461;29;20031;-69
2022/12/31 00:24:21;;;;;;;0.35;0.28;;;;;;;9.89;100.00;95775.50;1020163;29;20038;-68
2022/12/31 00:24:51;;;;;;;0.50;0.50;;;;;;;9.90;100.00;95782.34;1018376;29;20122;-68
2022/12/31 00:25:22;;;;;;;0.50;0.47;;;;;;;9.81;100.00;95786.50;1022004;29;20492;-68
2022/12/31 00:25:52;;;;;;;0.55;0.40;;;;;;;9.79;100.00;95789.38;1009897;29;20036;-68
2022/12/31 00:26:24;;;;;;;1.35;0.50;;;;;;;9.67;100.00;95781.72;1018285;29;20044;-69
2022/12/31 00:26:55;;;;;;;0.45;0.38;;;;;;;9.72;100.00;95772.28;1014489;29;20099;-69
2022/12/31 00:27:29;;;;;;;0.68;0.50;;;;;;;9.76;100.00;95786.47;1010637;29;20276;-68
2022/12/31 00:28:00;;;;;;;2.15;0.50;;;;;;;9.81;100.00;95787.28;1014473;29;20043;-68
2022/12/31 00:28:30;;;;;;;0.57;0.30;;;;;;;9.78;100.00;95782.53;1010704;29;20357;-67
2022/12/31 00:29:01;;;;;;;0.75;0.40;;;;;;;9.76;100.00;95781.22;1014630;29;20115;-69
2022/12/31 00:29:32;;;;;;;0.68;0.47;;;;;;;9.75;100.00;95790.13;1016769;29;20036;-68
2022/12/31 00:30:02;;;;;;;0.93;0.52;;;;;;;9.78;100.00;95785.16;1018458;29;20634;-69
2022/12/31 00:30:33;;;;;;;1.50;0.60;;;;;;;9.76;100.00;95781.22;1022342;29;20102;-68
2022/12/31 00:31:08;;;;;;;1.90;0.50;;;;;;;9.79;100.00;95791.19;1017950;29;20032;-68
2022/12/31 00:31:38;;;;;;;1.25;0.68;;;;;;;9.78;100.00;95789.63;1018075;29;20032;-66
2022/12/31 00:32:08;;;;;;;0.63;0.52;;;;;;;9.89;100.00;95789.41;1018415;29;20271;-67
2022/12/31 00:32:39;;;;;;;0.32;0.32;;;;;;;9.90;100.00;95793.59;1014851;29;20028;-68
2022/12/31 00:33:09;;;;;;;1.42;0.68;;;;;;;9.88;100.00;95784.41;1017949;29;20541;-68
2022/12/31 00:33:40;;;;;;;0.77;0.50;;;;;;;9.77;100.00;95782.81;1018091;29;20034;-69
2022/12/31 00:34:10;;;;;;;0.85;0.55;;;;;;;9.92;100.00;95788.09;1014511;29;20036;-67
2022/12/31 00:34:41;;;;;;;0.40;0.35;;;;;;;9.85;100.00;95779.69;1018561;29;20081;-68
2022/12/31 00:35:11;;;;;;;0.63;0.50;;;;;;;9.79;100.00;95797.25;1018248;29;20031;-69
2022/12/31 00:35:42;;;;;;;2.60;0.57;;;;;;;9.95;100.00;95795.44;1017533;29;20044;-67
2022/12/31 00:36:17;;;;;;;0.98;0.40;;;;;;;10.01;100.00;95793.66;1018383;29;20092;-68
2022/12/31 00:36:47;;;;;;;0.77;0.50;;;;;;;9.89;100.00;95801.72;1014974;29;20447;-68
2022/12/31 00:37:18;;;;;;;2.53;0.75;;;;;;;10.02;100.00;95801.25;1018987;29;20319;-67
2022/12/31 00:37:51;;;;;;;1.08;0.40;;;;;;;9.99;100.00;95783.41;1022185;29;20844;-68
2022/12/31 00:38:21;;;;;;;0.73;0.43;;;;;;;9.99;100.00;95796.50;1022688;28;20134;-67
2022/12/31 00:38:52;;;;;;;0.57;0.40;;;;;;;9.96;100.00;95786.56;1026484;28;20707;-68
2022/12/31 00:39:23;;;;;;;0.93;0.50;;;;;;;9.97;100.00;95798.63;1022145;29;20082;-68
2022/12/31 00:39:53;;;;;;;0.40;0.40;;;;;;;9.96;100.00;95797.03;1013863;29;20280;-69
2022/12/31 00:40:23;;;;;;;0.28;0.28;;;;;;;10.06;100.00;95802.31;1014948;29;20533;-69
2022/12/31 00:40:54;;;;;;;1.10;0.25;;;;;;;10.02;100.00;95795.22;1010591;29;20116;-68
2022/12/31 00:41:25;;;;;;;0.47;0.38;;;;;;;10.05;100.00;95800.72;1014394;29;20028;-67
2022/12/31 00:41:55;;;;;;;1.02;0.93;;;;;;;9.99;100.00;95786.03;1018106;29;20521;-68
2022/12/31 00:42:26;;;;;;;0.52;0.50;;;;;;;10.09;100.00;95791.31;1018708;28;20031;-69
2022/12/31 00:42:56;;;;;;;0.57;0.40;;;;;;;10.05;100.00;95794.69;1026446;28;20109;-68
2022/12/31 00:43:27;;;;;;;0.47;0.40;;;;;;;10.10;100.00;95798.13;1020921;29;20027;-68
2022/12/31 00:43:57;;;;;;;2.08;0.50;;;;;;;10.08;100.00;95794.97;1022169;29;20030;-68
2022/12/31 00:44:28;;;;;;;1.13;0.43;;;;;;;9.99;100.00;95798.34;1010280;29;20042;-69
2022/12/31 00:44:58;;;;;;;0.38;0.30;;;;;;;9.91;100.00;95800.41;1010448;29;20040;-68
2022/12/31 00:45:29;;;;;;;1.67;0.45;;;;;;;9.91;100.00;95789.16;1017688;29;20028;-67
2022/12/31 00:45:59;;;;;;;0.77;0.50;;;;;;;9.90;100.00;95791.00;1010107;29;20032;-67
2022/12/31 00:46:30;;;;;;;0.73;0.40;;;;;;;9.88;100.00;95789.66;1010178;29;20028;-69
2022/12/31 00:47:01;;;;;;;0.40;0.30;;;;;;;9.88;100.00;95789.66;1010518;29;20067;-68
2022/12/31 00:47:31;;;;;;;1.85;0.43;;;;;;;9.94;100.00;95788.63;1010432;29;20272;-68
2022/12/31 00:48:02;;;;;;;1.25;0.40;;;;;;;9.96;100.00;95781.31;1014543;29;20028;-70
2022/12/31 00:48:32;;;;;;;0.70;0.30;;;;;;;10.01;100.00;95791.81;1018327;29;20064;-67
2022/12/31 00:49:03;;;;;;;1.17;0.40;;;;;;;10.06;100.00;95791.03;1014390;29;20036;-67
2022/12/31 00:49:33;;;;;;;0.80;0.32;;;;;;;10.00;100.00;95795.47;1014679;29;20032;-68
2022/12/31 00:50:04;;;;;;;0.82;0.50;;;;;;;10.02;100.00;95785.50;1014160;29;20518;-70
2022/12/31 00:50:35;;;;;;;1.58;0.30;;;;;;;10.09;100.00;95801.00;1018098;29;20027;-67
2022/12/31 00:51:06;;;;;;;0.38;0.30;;;;;;;10.10;100.00;95800.75;1018313;29;20569;-67
2022/12/31 00:51:37;;;;;;;1.17;0.40;;;;;;;10.10;100.00;95800.75;1018109;29;20031;-70
2022/12/31 00:52:07;;;;;;;0.85;0.50;;;;;;;10.08;100.00;95802.06;1016661;29;20276;-68
2022/12/31 00:52:38;;;;;;;0.80;0.30;;;;;;;10.07;100.00;95798.66;1014307;29;20060;-70
2022/12/31 00:53:08;;;;;;;0.22;0.22;;;;;;;10.09;100.00;95806.25;1014523;29;20423;-69
2022/12/31 00:53:39;;;;;;;0.28;0.28;;;;;;;10.02;100.00;95788.13;1006736;29;20032;-68
2022/12/31 00:54:09;;;;;;;0.57;0.30;;;;;;;10.09;100.00;95795.75;1010403;29;20036;-67
2022/12/31 00:54:40;;;;;;;0.30;0.30;;;;;;;10.01;100.00;95815.41;1014301;29;20140;-70
2022/12/31 00:55:10;;;;;;;0.60;0.50;;;;;;;10.01;100.00;95812.78;1010705;29;20033;-69
2022/12/31 00:55:41;;;;;;;0.40;0.30;;;;;;;9.96;100.00;95820.63;1017335;29;20031;-69
2022/12/31 00:56:16;;;;;;;0.65;0.43;;;;;;;9.99;100.00;95800.97;1021952;29;20059;-68
2022/12/31 00:56:46;;;;;;;0.77;0.50;;;;;;;9.96;100.00;95820.63;1018006;29;20028;-69
2022/12/31 00:57:17;;;;;;;0.50;0.50;;;;;;;9.92;100.00;95827.41;1010108;29;20265;-69
2022/12/31 00:57:47;;;;;;;0.70;0.40;;;;;;;10.03;100.00;95815.16;1010430;29;20488;-68
2022/12/31 00:58:18;;;;;;;0.30;0.30;;;;;;;10.06;100.00;95812.00;1010242;29;20040;-69
2022/12/31 00:58:49;;;;;;;0.43;0.43;;;;;;;10.09;100.00;95814.09;1008598;29;20036;-68
2022/12/31 00:59:19;;;;;;;0.57;0.40;;;;;;;10.01;100.00;95818.03;1010481;29;20033;-68
2022/12/31 00:59:50;;;;;;;0.52;0.50;;;;;;;10.01;100.00;95828.50;1014553;29;20260;-70
2022/12/31 01:00:20;;;;;;;0.30;0.22;;;;;;;10.00;100.00;95824.31;1018351;28;20059;-69
2022/12/31 01:00:51;;;;;;;0.52;0.52;;;;;;;10.00;100.00;95816.44;1022086;29;20050;-66
2022/12/31 01:01:29;;;;;;;2.38;0.50;;;;;;;10.06;100.00;95828.53;1021943;29;20031;-68
2022/12/31 01:01:59;;;;;;;0.38;0.38;;;;;;;10.03;100.00;95823.03;1022213;29;20254;-67
2022/12/31 01:02:30;;;;;;;1.10;0.40;;;;;;;10.01;100.00;95823.25;1019141;29;20326;-69
2022/12/31 01:03:00;;;;;;;0.65;0.57;;;;;;;9.99;100.00;95822.72;1018144;29;20052;-67
2022/12/31 01:03:31;;;;;;;0.43;0.43;;;;;;;9.99;100.00;95827.97;1014508;29;20051;-68
2022/12/31 01:04:06;;;;;;;0.73;0.40;;;;;;;9.89;100.00;95839.22;1014306;29;20040;-67
2022/12/31 01:04:36;;;;;;;0.68;0.45;;;;;;;9.99;100.00;95833.19;1010878;29;20033;-68
2022/12/31 01:05:07;;;;;;;0.60;0.38;;;;;;;9.94;100.00;95825.34;1014957;29;20280;-68
2022/12/31 01:05:37;;;;;;;0.68;0.35;;;;;;;9.93;100.00;95844.75;1011221;29;20033;-66
2022/12/31 01:06:08;;;;;;;0.57;0.30;;;;;;;9.98;100.00;95829.00;1014584;29;20027;-68
2022/12/31 01:06:39;;;;;;;0.70;0.40;;;;;;;9.99;100.00;95827.97;1010267;29;20064;-68
2022/12/31 01:07:09;;;;;;;0.82;0.40;;;;;;;9.96;100.00;95843.41;1014113;29;20027;-70
2022/12/31 01:07:39;;;;;;;0.22;0.22;;;;;;;9.94;100.00;95838.44;1014375;29;20059;-64
2022/12/31 01:08:10;;;;;;;0.40;0.40;;;;;;;9.91;100.00;95842.34;1014531;29;20032;-68
2022/12/31 01:08:40;;;;;;;0.30;0.30;;;;;;;9.86;100.00;95838.94;1022394;29;20543;-69
2022/12/31 01:09:12;;;;;;;0.65;0.40;;;;;;;9.93;100.00;95839.50;1021270;29;20031;-67
2022/12/31 01:09:42;;;;;;;0.52;0.50;;;;;;;9.97;100.00;95845.00;1018329;29;20143;-68
2022/12/31 01:11:17;;;;;;;0.43;0.43;;;;;;;9.98;100.00;95831.63;1018221;29;20275;-69
2022/12/31 01:11:20;;;;;;;0.50;0.50;;;;;;;10.07;100.00;95830.09;1015208;29;20040;-66
2022/12/31 01:11:51;;;;;;;1.55;0.47;;;;;;;10.15;100.00;95834.06;1018151;29;20042;-68
2022/12/31 01:12:23;;;;;;;0.80;0.63;;;;;;;10.09;100.00;95838.50;1014026;29;20755;-67
2022/12/31 01:12:53;;;;;;;0.90;0.50;;;;;;;10.05;100.00;95847.91;1010574;29;20503;-67
2022/12/31 01:13:24;;;;;;;0.20;0.20;;;;;;;10.11;100.00;95846.13;1012654;29;20273;-68
2022/12/31 01:13:59;;;;;;;0.43;0.30;;;;;;;10.17;100.00;95844.31;1010462;29;20074;-69
2022/12/31 01:14:31;;;;;;;0.30;0.30;;;;;;;10.11;100.00;95831.16;1014995;29;20489;-68
2022/12/31 01:15:02;;;;;;;0.47;0.40;;;;;;;10.00;100.00;95823.53;1018094;29;20274;-68
2022/12/31 01:15:34;;;;;;;0.30;0.30;;;;;;;10.11;100.00;95848.72;1014695;29;20374;-68
2022/12/31 01:16:08;;;;;;;1.55;0.47;;;;;;;10.08;100.00;95839.53;1018823;29;20472;-67
2022/12/31 01:16:43;;;;;;;0.63;0.30;;;;;;;10.02;100.00;95840.56;1018027;29;20310;-68
2022/12/31 01:17:16;;;;;;;0.32;0.30;;;;;;;10.02;100.00;95840.56;1015397;29;20660;-70
2022/12/31 01:17:46;;;;;;;0.43;0.43;;;;;;;10.05;100.00;95840.06;1017977;29;20704;-68
2022/12/31 01:18:16;;;;;;;0.47;0.40;;;;;;;10.00;100.00;95829.56;1015277;29;20278;-65
2022/12/31 01:18:47;;;;;;;0.32;0.30;;;;;;;10.04;100.00;95845.56;1018264;29;20647;-68
2022/12/31 01:19:23;;;;;;;1.23;0.40;;;;;;;10.00;100.00;95847.91;1013907;29;20047;-68
2022/12/31 01:19:54;;;;;;;1.00;0.45;;;;;;;10.01;100.00;95841.63;1015036;29;20039;-68
2022/12/31 01:20:24;;;;;;;0.38;0.30;;;;;;;10.06;100.00;95843.47;1018029;29;20326;-68
2022/12/31 01:20:55;;;;;;;0.40;0.35;;;;;;;9.99;100.00;95848.94;1019671;28;20078;-67
2022/12/31 01:21:25;;;;;;;0.32;0.30;;;;;;;9.98;100.00;95847.38;1026164;28;20035;-68
2022/12/31 01:21:56;;;;;;;0.88;0.47;;;;;;;10.12;100.00;95845.84;1022202;29;20023;-69
2022/12/31 01:22:26;;;;;;;0.30;0.30;;;;;;;10.09;100.00;95846.38;1014043;29;20091;-68
2022/12/31 01:22:57;;;;;;;0.70;0.40;;;;;;;10.10;100.00;95850.56;1014180;29;20031;-70
2022/12/31 01:23:28;;;;;;;2.92;0.43;;;;;;;10.11;100.00;95860.00;1021798;29;20095;-68
2022/12/31 01:23:58;;;;;;;0.77;0.40;;;;;;;10.18;100.00;95846.66;1022295;29;20665;-67
2022/12/31 01:24:29;;;;;;;1.48;0.50;;;;;;;10.14;100.00;95846.38;1021953;29;20042;-70
2022/12/31 01:24:59;;;;;;;0.57;0.45;;;;;;;10.13;100.00;95847.44;1022519;28;20034;-68
2022/12/31 01:25:30;;;;;;;0.40;0.40;;;;;;;10.10;100.00;95849.78;1021442;29;20039;-67
2022/12/31 01:26:01;;;;;;;0.65;0.32;;;;;;;10.15;100.00;95852.41;1021768;29;20035;-67
2022/12/31 01:26:32;;;;;;;0.38;0.30;;;;;;;10.12;100.00;95856.31;1018197;29;20105;-69
2022/12/31 01:27:02;;;;;;;0.52;0.43;;;;;;;10.07;100.00;95842.44;1018383;29;20374;-68
2022/12/31 01:27:33;;;;;;;0.35;0.35;;;;;;;10.03;100.00;95857.09;1017745;29;20028;-69
2022/12/31 01:28:04;;;;;;;0.80;0.30;;;;;;;9.97;100.00;95855.50;1018338;29;20031;-68
2022/12/31 01:28:35;;;;;;;0.75;0.40;;;;;;;9.99;100.00;95859.41;1017846;29;20027;-67
2022/12/31 01:29:05;;;;;;;0.38;0.38;;;;;;;10.08;100.00;95862.34;1014354;29;20276;-70
2022/12/31 01:29:36;;;;;;;0.28;0.25;;;;;;;10.07;100.00;95861.56;1020631;29;20031;-69
2022/12/31 01:30:07;;;;;;;2.50;0.30;;;;;;;10.08;100.00;95860.50;1021957;29;20080;-68
2022/12/31 01:30:38;;;;;;;0.32;0.30;;;;;;;10.07;100.00;95845.84;1018125;29;20043;-70
2022/12/31 01:31:10;;;;;;;0.45;0.45;;;;;;;10.12;100.00;95858.16;1017871;29;20765;-68
2022/12/31 01:31:41;;;;;;;1.83;0.30;;;;;;;10.02;100.00;95856.28;1010416;29;20659;-66
2022/12/31 01:32:12;;;;;;;0.45;0.40;;;;;;;10.04;100.00;95862.06;1014480;29;20276;-68
2022/12/31 01:32:42;;;;;;;0.20;0.20;;;;;;;9.98;100.00;95863.09;1009848;29;20080;-68
2022/12/31 01:33:12;;;;;;;0.40;0.40;;;;;;;10.02;100.00;95858.91;1010739;29;20036;-66
2022/12/31 01:33:43;;;;;;;0.32;0.32;;;;;;;9.96;100.00;95870.44;1018053;29;20040;-67
2022/12/31 01:34:13;;;;;;;0.38;0.30;;;;;;;10.00;100.00;95871.50;1018315;29;20032;-68
2022/12/31 01:34:44;;;;;;;0.30;0.30;;;;;;;9.98;100.00;95859.69;1022133;29;20039;-69
2022/12/31 01:35:14;;;;;;;0.30;0.30;;;;;;;10.09;100.00;95859.50;1017949;29;20495;-67
2022/12/31 01:35:45;;;;;;;0.38;0.38;;;;;;;10.02;100.00;95855.50;1017316;29;20063;-71
2022/12/31 01:36:18;;;;;;;0.52;0.28;;;;;;;10.07;100.00;95848.47;1014288;29;20634;-69
2022/12/31 01:36:48;;;;;;;0.40;0.30;;;;;;;10.15;100.00;95873.38;1021952;29;20030;-68
2022/12/31 01:37:19;;;;;;;1.65;0.40;;;;;;;10.15;100.00;95873.38;1018159;29;20335;-66
2022/12/31 01:37:49;;;;;;;0.40;0.30;;;;;;;10.12;100.00;95877.31;1017967;29;20020;-68
2022/12/31 01:38:20;;;;;;;0.30;0.30;;;;;;;10.10;100.00;95876.78;1013948;29;20791;-70
2022/12/31 01:38:50;;;;;;;0.32;0.20;;;;;;;10.08;100.00;95863.13;1010567;29;20036;-68
2022/12/31 01:39:21;;;;;;;0.40;0.40;;;;;;;10.11;100.00;95869.72;1006561;29;20048;-68
2022/12/31 01:39:51;;;;;;;0.35;0.25;;;;;;;10.16;100.00;95880.22;1014202;29;20044;-68
2022/12/31 01:40:22;;;;;;;0.30;0.20;;;;;;;10.17;100.00;95876.56;1010372;29;20028;-69
2022/12/31 01:40:52;;;;;;;0.43;0.40;;;;;;;10.14;100.00;95861.34;1014391;29;20028;-68
2022/12/31 01:41:28;;;;;;;0.47;0.43;;;;;;;10.08;100.00;95863.13;1018195;29;20469;-69
2022/12/31 01:41:58;;;;;;;0.60;0.38;;;;;;;10.12;100.00;95868.66;1014860;29;20043;-67
2022/12/31 01:42:29;;;;;;;1.50;0.40;;;;;;;10.10;100.00;95876.78;1014009;29;20306;-68
2022/12/31 01:42:59;;;;;;;1.95;0.30;;;;;;;10.06;100.00;95875.72;1010400;29;20032;-68
2022/12/31 01:43:41;;;;;;;0.45;0.45;;;;;;;10.06;100.00;95867.88;1010490;29;20032;-69
2022/12/31 01:44:12;;;;;;;1.98;0.52;;;;;;;10.07;100.00;95866.81;1016027;29;20081;-69
2022/12/31 01:44:51;;;;;;;0.47;0.40;;;;;;;10.11;100.00;95852.13;1020395;29;20356;-67
2022/12/31 01:45:21;;;;;;;0.52;0.52;;;;;;;10.13;100.00;95863.16;1014430;29;20031;-68
2022/12/31 01:45:52;;;;;;;0.47;0.40;;;;;;;10.17;100.00;95860.81;1015611;29;20268;-68
2022/12/31 01:46:34;;;;;;;1.02;0.32;;;;;;;10.11;100.00;95857.38;1018694;29;20024;-67
2022/12/31 01:47:05;;;;;;;0.40;0.40;;;;;;;10.17;100.00;95860.03;1024415;28;20026;-67
2022/12/31 01:47:41;;;;;;;0.38;0.30;;;;;;;10.18;100.00;95859.00;1023019;29;20311;-67
2022/12/31 01:48:13;;;;;;;0.32;0.32;;;;;;;10.08;100.00;95860.50;1019225;29;20024;-69
2022/12/31 01:48:46;;;;;;;0.40;0.40;;;;;;;10.14;100.00;95854.25;1018580;29;20312;-70
2022/12/31 01:49:42;;;;;;;0.95;0.40;;;;;;;10.23;100.00;95859.81;1015209;29;20271;-69
2022/12/31 01:50:20;;;;;;;0.50;0.40;;;;;;;10.26;100.00;95853.25;1018793;29;20338;-65
2022/12/31 01:50:51;;;;;;;0.98;0.32;;;;;;;10.30;100.00;95854.34;1015505;29;20351;-68
2022/12/31 01:51:21;;;;;;;0.32;0.32;;;;;;;10.28;100.00;95859.06;1018779;29;20343;-68
2022/12/31 01:51:57;;;;;;;0.77;0.38;;;;;;;10.34;100.00;95850.16;1019960;29;20079;-68
2022/12/31 01:52:30;;;;;;;1.38;0.22;;;;;;;10.39;100.00;95852.78;1020616;29;20039;-67
2022/12/31 01:53:02;;;;;;;0.30;0.20;;;;;;;10.30;100.00;95849.88;1018631;29;20255;-68
2022/12/31 01:53:32;;;;;;;0.30;0.20;;;;;;;10.30;100.00;95854.34;1014813;29;20267;-69
2022/12/31 01:54:04;;;;;;;0.40;0.40;;;;;;;10.28;100.00;95851.19;1011149;29;20257;-68
2022/12/31 01:54:38;;;;;;;0.40;0.30;;;;;;;10.25;100.00;95846.41;1014860;29;20537;-68
2022/12/31 01:55:18;;;;;;;0.52;0.40;;;;;;;10.33;100.00;95849.38;1011136;29;20280;-68
2022/12/31 01:55:54;;;;;;;0.55;0.40;;;;;;;10.20;100.00;95843.81;1016233;29;20267;-68
2022/12/31 01:56:25;;;;;;;0.25;0.20;;;;;;;10.26;100.00;95848.03;1011100;29;20132;-68
2022/12/31 01:56:55;;;;;;;0.52;0.38;;;;;;;10.44;100.00;95850.19;1013119;29;21278;-68
2022/12/31 01:57:26;;;;;;;0.30;0.30;;;;;;;10.36;100.00;95842.81;1014818;29;20032;-70
2022/12/31 01:58:00;;;;;;;0.65;0.65;;;;;;;10.44;100.00;95833.66;1018546;29;20038;-68
2022/12/31 01:58:35;;;;;;;1.45;0.32;;;;;;;10.43;100.00;95842.56;1018774;29;20054;-69
2022/12/31 01:59:07;;;;;;;0.82;0.50;;;;;;;10.41;100.00;95842.06;1014835;29;20268;-68
2022/12/31 01:59:37;;;;;;;0.50;0.30;;;;;;;10.44;100.00;95844.16;1018524;29;20350;-67
2022/12/31 02:00:08;;;;;;;0.45;0.32;;;;;;;10.50;100.00;95848.38;1014847;29;20327;-68
2022/12/31 02:00:39;;;;;;;0.47;0.40;;;;;;;10.50;100.00;95846.53;1014853;29;20035;-68
2022/12/31 02:01:10;;;;;;;0.45;0.28;;;;;;;10.47;100.00;95844.44;1014703;29;20271;-68
2022/12/31 02:01:40;;;;;;;1.30;0.22;;;;;;;10.52;100.00;95836.56;1011219;29;20031;-69
2022/12/31 02:02:11;;;;;;;0.80;0.30;;;;;;;10.47;100.00;95851.50;1007252;29;20457;-68
2022/12/31 02:02:42;;;;;;;0.63;0.50;;;;;;;10.50;100.00;95832.63;1018665;29;20059;-68
2022/12/31 02:03:12;;;;;;;1.10;0.40;;;;;;;10.50;100.00;95841.28;1015001;29;20851;-69
2022/12/31 02:03:43;;;;;;;0.30;0.30;;;;;;;10.71;100.00;95847.34;1014880;29;20021;-67
2022/12/31 02:04:13;;;;;;;0.47;0.40;;;;;;;10.67;100.00;95842.91;1011304;29;20080;-67
2022/12/31 02:04:44;;;;;;;0.30;0.30;;;;;;;10.50;100.00;95841.28;1011163;29;20373;-70
2022/12/31 02:05:28;;;;;;;0.70;0.50;;;;;;;10.49;100.00;95844.94;1011016;29;20033;-68
2022/12/31 02:06:12;;;;;;;0.40;0.30;;;;;;;10.65;100.00;95848.38;1011086;29;20099;-68
2022/12/31 02:06:46;;;;;;;0.95;0.40;;;;;;;10.66;100.00;95831.59;1018513;29;20275;-68
2022/12/31 02:07:16;;;;;;;0.75;0.40;;;;;;;10.62;100.00;95848.91;1022564;29;20274;-68
2022/12/31 02:07:47;;;;;;;0.85;0.28;;;;;;;10.61;100.00;95842.88;1022785;29;20775;-68
2022/12/31 02:08:17;;;;;;;0.30;0.30;;;;;;;10.62;100.00;95847.06;1018840;29;20027;-68
2022/12/31 02:08:48;;;;;;;0.40;0.40;;;;;;;10.66;100.00;95830.81;1018841;29;20032;-69
2022/12/31 02:09:18;;;;;;;0.52;0.40;;;;;;;10.73;100.00;95839.22;1018801;29;20573;-67
2022/12/31 02:09:49;;;;;;;0.43;0.30;;;;;;;10.71;100.00;95833.44;1010956;29;20036;-68
2022/12/31 02:10:19;;;;;;;0.70;0.50;;;;;;;10.68;100.00;95840.00;1011160;29;20021;-68
2022/12/31 02:10:50;;;;;;;1.13;0.30;;;;;;;10.65;100.00;95834.50;1012179;29;20091;-67
2022/12/31 02:11:36;;;;;;;0.68;0.43;;;;;;;10.76;100.00;95841.31;1018706;28;20536;-69
2022/12/31 02:12:07;;;;;;;0.57;0.40;;;;;;;10.81;100.00;95847.38;1018836;29;20062;-67
2022/12/31 02:12:37;;;;;;;0.68;0.50;;;;;;;10.66;100.00;95836.06;1014714;29;20775;-65
2022/12/31 02:13:08;;;;;;;0.88;0.40;;;;;;;10.74;100.00;95835.56;1011271;29;20048;-69
2022/12/31 02:13:38;;;;;;;0.98;0.30;;;;;;;10.80;100.00;95847.66;1010704;29;20036;-68
2022/12/31 02:14:15;;;;;;;3.30;1.38;;;;;;;10.74;100.00;95854.72;1010914;29;20028;-69
2022/12/31 02:14:47;;;;;;;0.22;0.22;;;;;;;10.76;100.00;95857.06;1014746;29;20028;-68
2022/12/31 02:15:18;;;;;;;1.20;0.10;;;;;;;10.68;100.00;95839.22;1014852;29;20276;-67
2022/12/31 02:16:00;;;;;;;0.30;0.30;;;;;;;10.76;100.00;95857.06;1015735;29;20684;-68
2022/12/31 02:16:50;;;;;;;0.30;0.30;;;;;;;10.71;100.00;95854.44;1020731;29;20256;-68
2022/12/31 02:17:33;;;;;;;0.30;0.25;;;;;;;10.65;100.00;95855.47;1026699;28;20368;-68
2022/12/31 02:18:36;;;;;;;2.25;0.30;;;;;;;10.60;100.00;95866.75;1022756;29;20294;-69
2022/12/31 02:19:25;;;;;;;0.35;0.20;;;;;;;10.66;100.00;95859.66;1014355;29;20267;-68
2022/12/31 02:20:30;;;;;;;0.20;0.20;;;;;;;10.60;100.00;95864.94;1018171;29;20681;-68
2022/12/31 02:21:28;;;;;;;0.55;0.28;;;;;;;10.57;100.00;95849.69;1024257;28;20656;-70
2022/12/31 02:22:14;;;;;;;0.43;0.32;;;;;;;10.59;100.00;95859.91;1019145;29;20266;-69
2022/12/31 02:22:51;;;;;;;0.57;0.30;;;;;;;10.56;100.00;95858.63;1014674;29;20269;-68
2022/12/31 02:23:24;;;;;;;0.50;0.50;;;;;;;10.58;100.00;95860.97;1016586;29;20264;-69
2022/12/31 02:24:12;;;;;;;1.00;0.50;;;;;;;10.59;100.00;95863.31;1019621;29;20762;-68
2022/12/31 02:25:14;;;;;;;0.35;0.35;;;;;;;10.65;100.00;95860.72;1026830;28;20891;-69
2022/12/31 02:26:09;;;;;;;0.20;0.20;;;;;;;10.65;100.00;95860.72;1026660;28;20246;-68
2022/12/31 02:26:56;;;;;;;0.60;0.38;;;;;;;10.60;100.00;95854.44;1024080;29;20287;-68
2022/12/31 02:27:56;;;;;;;0.45;0.40;;;;;;;10.78;100.00;95865.47;1019625;29;20322;-68
2022/12/31 02:29:04;;;;;;;2.58;0.32;;;;;;;10.77;100.00;95858.66;1007582;29;20289;-68
2022/12/31 02:29:57;;;;;;;0.17;0.17;;;;;;;10.74;100.00;95865.22;1026559;28;20316;-68
2022/12/31 02:30:29;;;;;;;0.30;0.30;;;;;;;10.80;100.00;95852.91;1023384;29;20300;-70
2022/12/31 02:31:05;;;;;;;0.30;0.30;;;;;;;10.74;100.00;95862.59;1023381;28;20720;-68
2022/12/31 02:31:49;;;;;;;0.73;0.28;;;;;;;10.72;100.00;95861.25;1019555;29;20384;-68
2022/12/31 02:32:27;;;;;;;0.90;0.45;;;;;;;10.74;100.00;95865.22;1015216;29;20264;-68
2022/12/31 02:33:09;;;;;;;0.95;0.40;;;;;;;10.73;100.00;95868.09;1011602;29;20762;-68
2022/12/31 02:33:41;;;;;;;0.20;0.20;;;;;;;10.72;100.00;95863.88;1015559;29;20908;-68
2022/12/31 02:34:30;;;;;;;0.75;0.35;;;;;;;10.75;100.00;95860.75;1022022;29;20298;-66
2022/12/31 02:35:08;;;;;;;1.08;0.30;;;;;;;10.84;100.00;95867.06;1023223;29;20287;-69